createdAt,value
2022-11-18T00:02:02.689Z,8.40
2022-11-18T00:05:06.039Z,8.48
2022-11-18T00:08:08.750Z,8.83
2022-11-18T00:11:48.534Z,8.68
2022-11-18T00:14:51.181Z,11.63
2022-11-18T00:17:53.849Z,8.05
2022-11-18T00:21:00.453Z,9.65
2022-11-18T00:24:03.142Z,8.97
2022-11-18T00:27:05.843Z,8.68
2022-11-18T00:30:09.377Z,9.05
2022-11-18T00:33:12.178Z,8.38
2022-11-18T00:36:14.962Z,8.82
2022-11-18T00:39:21.622Z,8.47
2022-11-18T00:42:43.020Z,7.80
2022-11-18T00:45:45.609Z,8.00
2022-11-18T00:48:48.180Z,8.43
2022-11-18T00:51:51.035Z,8.50
2022-11-18T00:54:53.716Z,8.53
2022-11-18T00:57:56.404Z,8.40
2022-11-18T01:00:59.288Z,7.80
2022-11-18T01:04:02.237Z,8.57
2022-11-18T01:07:05.060Z,7.75
2022-11-18T01:10:07.975Z,7.47
2022-11-18T01:13:19.941Z,8.02
2022-11-18T01:16:24.867Z,7.47
2022-11-18T01:19:27.683Z,8.43
2022-11-18T01:22:30.351Z,8.52
2022-11-18T01:25:33.194Z,7.90
2022-11-18T01:28:36.105Z,7.85
2022-11-18T01:31:55.259Z,7.85
2022-11-18T01:35:02.092Z,8.10
2022-11-18T01:38:05.908Z,7.45
2022-11-18T01:41:08.559Z,7.90
2022-11-18T01:44:48.596Z,8.90
2022-11-18T01:48:07.483Z,7.38
2022-11-18T01:51:13.396Z,9.13
2022-11-18T01:54:30.273Z,7.53
2022-11-18T01:57:33.353Z,7.97
2022-11-18T02:00:36.058Z,8.18
2022-11-18T02:03:39.480Z,7.93
2022-11-18T02:06:43.998Z,7.53
2022-11-18T02:09:47.956Z,6.78
2022-11-18T02:12:52.179Z,7.43
2022-11-18T02:16:15.968Z,6.75
2022-11-18T02:19:36.521Z,7.88
2022-11-18T02:23:15.626Z,7.75
2022-11-18T02:26:42.691Z,8.70
2022-11-18T02:30:03.790Z,6.73
2022-11-18T02:33:13.471Z,6.68
2022-11-18T02:36:27.196Z,7.47
2022-11-18T02:39:36.795Z,7.60
2022-11-18T02:42:41.657Z,7.03
2022-11-18T02:45:48.589Z,7.53
2022-11-18T02:48:52.537Z,7.78
2022-11-18T02:51:56.399Z,7.30
2022-11-18T02:55:01.247Z,6.25
2022-11-18T02:58:05.785Z,7.38
2022-11-18T03:01:18.564Z,6.97
2022-11-18T03:04:23.214Z,7.82
2022-11-18T03:07:32.242Z,7.80
2022-11-18T03:10:48.099Z,7.43
2022-11-18T03:14:09.329Z,6.97
2022-11-18T03:17:21.013Z,6.90
2022-11-18T03:20:31.120Z,7.25
2022-11-18T03:23:40.555Z,6.55
2022-11-18T03:26:48.940Z,6.57
2022-11-18T03:29:59.925Z,6.88
2022-11-18T03:33:08.719Z,6.70
2022-11-18T03:36:14.155Z,7.07
2022-11-18T03:39:18.685Z,7.28
2022-11-18T03:42:47.193Z,6.70
2022-11-18T03:45:53.888Z,6.68
2022-11-18T03:48:58.409Z,6.97
2022-11-18T03:52:08.109Z,6.95
2022-11-18T03:55:18.990Z,6.53
2022-11-18T03:58:47.757Z,7.22
2022-11-18T04:02:01.526Z,7.22
2022-11-18T04:05:08.167Z,6.73
2022-11-18T04:08:21.962Z,6.35
2022-11-18T04:11:50.271Z,6.68
2022-11-18T04:14:55.636Z,6.90
2022-11-18T04:17:59.231Z,5.95
2022-11-18T04:21:01.849Z,6.73
2022-11-18T04:24:04.738Z,6.55
2022-11-18T04:27:08.287Z,6.93
2022-11-18T04:30:11.574Z,6.72
2022-11-18T04:33:14.226Z,6.47
2022-11-18T04:36:16.999Z,6.77
2022-11-18T04:39:19.979Z,6.22
2022-11-18T04:42:22.810Z,5.90
2022-11-18T04:45:25.486Z,5.35
2022-11-18T04:48:28.206Z,6.40
2022-11-18T04:51:30.830Z,5.70
2022-11-18T04:54:33.610Z,6.32
2022-11-18T04:57:36.322Z,6.35
2022-11-18T05:00:39.043Z,6.97
2022-11-18T05:03:45.078Z,5.35
2022-11-18T05:06:50.612Z,5.30
2022-11-18T05:09:53.336Z,6.00
2022-11-18T05:12:56.068Z,5.55
2022-11-18T05:16:01.573Z,6.32
2022-11-18T05:19:05.823Z,6.47
2022-11-18T05:22:08.782Z,5.63
2022-11-18T05:25:11.567Z,5.95
2022-11-18T05:28:14.514Z,6.53
2022-11-18T05:31:17.467Z,5.82
2022-11-18T05:34:25.363Z,6.85
2022-11-18T05:37:28.017Z,5.30
2022-11-18T05:40:30.643Z,6.00
2022-11-18T05:43:33.603Z,5.70
2022-11-18T05:46:36.374Z,5.65
2022-11-18T05:49:39.078Z,6.22
2022-11-18T05:52:41.685Z,5.40
2022-11-18T05:55:56.525Z,5.32
2022-11-18T05:58:59.242Z,5.90
2022-11-18T06:02:05.665Z,5.70
2022-11-18T06:05:08.979Z,6.40
2022-11-18T06:08:13.218Z,5.00
2022-11-18T06:11:19.612Z,5.78
2022-11-18T06:14:30.193Z,6.57
2022-11-18T06:17:40.103Z,5.85
2022-11-18T06:20:43.323Z,6.38
2022-11-18T06:23:46.424Z,5.47
2022-11-18T06:26:49.378Z,6.38
2022-11-18T06:29:52.085Z,6.07
2022-11-18T06:32:54.767Z,5.38
2022-11-18T06:35:57.362Z,6.25
2022-11-18T06:39:05.033Z,5.87
2022-11-18T06:42:07.756Z,6.70
2022-11-18T06:45:11.097Z,6.05
2022-11-18T06:48:15.387Z,5.90
2022-11-18T06:51:18.168Z,5.47
2022-11-18T06:54:20.975Z,6.33
2022-11-18T06:57:23.623Z,6.80
2022-11-18T07:00:26.258Z,6.43
2022-11-18T07:03:28.854Z,5.65
2022-11-18T07:06:34.230Z,5.55
2022-11-18T07:09:38.179Z,6.27
2022-11-18T07:12:41.789Z,5.55
2022-11-18T07:15:44.843Z,6.47
2022-11-18T07:18:49.203Z,6.43
2022-11-18T07:21:51.986Z,5.78
2022-11-18T07:24:54.529Z,6.53
2022-11-18T07:27:58.671Z,5.78
2022-11-18T07:31:06.564Z,7.28
2022-11-18T07:34:27.839Z,6.22
2022-11-18T07:37:30.649Z,7.40
2022-11-18T07:40:33.483Z,5.87
2022-11-18T07:43:36.643Z,8.88
2022-11-18T07:46:39.459Z,5.85
2022-11-18T07:49:42.333Z,6.80
2022-11-18T07:52:45.018Z,6.45
2022-11-18T07:55:47.635Z,6.10
2022-11-18T07:58:55.234Z,8.55
2022-11-18T08:01:57.964Z,6.97
2022-11-18T08:05:00.697Z,9.05
2022-11-18T08:08:06.535Z,7.25
2022-11-18T08:11:20.424Z,7.23
2022-11-18T08:14:24.797Z,7.93
2022-11-18T08:17:27.578Z,8.68
2022-11-18T08:20:30.375Z,10.98
2022-11-18T08:23:38.903Z,8.43
2022-11-18T08:26:44.338Z,8.20
2022-11-18T08:29:46.968Z,9.57
2022-11-18T08:32:49.634Z,9.20
2022-11-18T08:35:52.672Z,10.02
2022-11-18T08:39:00.291Z,11.93
2022-11-18T08:42:24.731Z,11.70
2022-11-18T08:45:28.174Z,11.35
2022-11-18T08:48:31.097Z,14.95
2022-11-18T08:51:34.056Z,14.27
2022-11-18T08:54:37.114Z,13.43
2022-11-18T08:57:49.983Z,19.23
2022-11-18T09:00:56.147Z,16.15
2022-11-18T09:03:59.208Z,19.15
2022-11-18T09:07:03.098Z,16.10
2022-11-18T09:10:06.553Z,13.65
2022-11-18T09:13:42.590Z,19.50
2022-11-18T09:16:36.108Z,14.15
2022-11-18T09:23:02.311Z,15.10
2022-11-18T09:26:16.891Z,15.18
2022-11-18T09:29:22.680Z,13.47
2022-11-18T09:32:26.230Z,11.90
2022-11-18T09:35:29.097Z,14.27
2022-11-18T09:38:32.823Z,14.45
2022-11-18T09:41:57.314Z,13.60
2022-11-18T09:45:20.708Z,12.77
2022-11-18T09:48:46.926Z,11.45
2022-11-18T09:51:51.772Z,11.30
2022-11-18T09:54:54.658Z,11.18
2022-11-18T09:57:59.524Z,11.40
2022-11-18T10:01:03.302Z,11.00
2022-11-18T10:04:06.061Z,11.15
2022-11-18T10:07:25.551Z,12.23
2022-11-18T10:10:43.110Z,10.88
2022-11-18T10:14:10.257Z,10.57
2022-11-18T10:17:34.477Z,11.67
2022-11-18T10:21:04.537Z,9.75
2022-11-18T10:24:17.179Z,14.15
2022-11-18T10:27:20.828Z,10.50
2022-11-18T10:30:26.245Z,10.93
2022-11-18T10:33:29.455Z,13.13
2022-11-18T10:36:38.056Z,9.00
2022-11-18T10:39:51.546Z,9.10
2022-11-18T10:42:54.577Z,9.90
2022-11-18T10:45:57.498Z,9.50
2022-11-18T10:49:09.458Z,9.40
2022-11-18T10:52:14.350Z,11.27
2022-11-18T10:55:22.583Z,12.07
2022-11-18T10:58:28.078Z,9.35
2022-11-18T11:01:30.863Z,10.32
2022-11-18T11:04:35.608Z,11.73
2022-11-18T11:07:38.430Z,15.15
2022-11-18T11:10:41.287Z,10.93
2022-11-18T11:13:45.337Z,9.00
2022-11-18T11:17:05.572Z,9.23
2022-11-18T11:20:17.230Z,9.80
2022-11-18T11:23:23.964Z,11.88
2022-11-18T11:30:18.591Z,11.05
2022-11-18T11:33:45.797Z,9.57
2022-11-18T11:36:52.147Z,7.60
2022-11-18T11:40:13.308Z,8.65
2022-11-18T11:43:46.365Z,9.85
2022-11-18T11:47:37.133Z,9.23
2022-11-18T11:51:03.027Z,8.27
2022-11-18T11:54:38.555Z,8.83
2022-11-18T11:58:05.747Z,9.07
2022-11-18T12:01:13.839Z,8.02
2022-11-18T12:04:37.522Z,9.63
2022-11-18T12:07:49.334Z,8.07
2022-11-18T12:11:19.305Z,8.27
2022-11-18T12:14:44.808Z,7.85
2022-11-18T12:18:13.375Z,9.23
2022-11-18T12:21:46.939Z,7.15
2022-11-18T12:24:49.657Z,8.07
2022-11-18T12:27:59.463Z,9.50
2022-11-18T12:31:23.064Z,6.97
2022-11-18T12:34:25.669Z,8.52
2022-11-18T12:37:28.322Z,7.63
2022-11-18T12:40:38.214Z,7.38
2022-11-18T12:44:01.328Z,7.53
2022-11-18T12:47:05.583Z,7.75
2022-11-18T12:50:09.632Z,7.15
2022-11-18T12:53:30.076Z,7.22
2022-11-18T12:56:36.723Z,8.20
2022-11-18T12:59:39.452Z,8.40
2022-11-18T13:02:54.167Z,7.47
2022-11-18T13:06:04.806Z,7.03
2022-11-18T13:09:23.298Z,6.32
2022-11-18T13:12:29.554Z,6.97
2022-11-18T13:15:50.434Z,7.43
2022-11-18T13:18:54.360Z,6.88
2022-11-18T13:22:18.869Z,6.93
2022-11-18T13:25:26.578Z,7.80
2022-11-18T13:28:48.341Z,7.97
2022-11-18T13:32:03.561Z,5.83
2022-11-18T13:35:18.477Z,7.57
2022-11-18T13:38:28.335Z,6.50
2022-11-18T13:41:33.617Z,6.00
2022-11-18T13:44:38.314Z,6.35
2022-11-18T13:47:49.055Z,6.43
2022-11-18T13:50:55.216Z,6.53
2022-11-18T13:53:58.212Z,9.93
2022-11-18T13:57:00.928Z,11.00
2022-11-18T14:00:07.995Z,10.60
2022-11-18T14:03:32.474Z,12.83
2022-11-18T14:06:37.579Z,14.30
2022-11-18T14:09:56.811Z,9.65
2022-11-18T14:13:16.611Z,8.63
2022-11-18T14:16:19.189Z,10.60
2022-11-18T14:19:30.954Z,9.70
2022-11-18T14:22:34.442Z,11.55
2022-11-18T14:25:37.295Z,9.60
2022-11-18T14:28:39.926Z,10.57
2022-11-18T14:31:43.018Z,11.48
2022-11-18T14:34:45.671Z,9.20
2022-11-18T14:37:48.323Z,9.50
2022-11-18T14:40:56.266Z,10.23
2022-11-18T14:43:58.967Z,10.07
2022-11-18T14:47:21.153Z,9.05
2022-11-18T14:50:23.959Z,8.67
2022-11-18T14:53:26.700Z,8.65
2022-11-18T14:56:31.596Z,11.02
2022-11-18T14:59:34.351Z,10.43
2022-11-18T15:02:37.012Z,8.85
2022-11-18T15:05:40.835Z,9.30
2022-11-18T15:08:47.122Z,9.57
2022-11-18T15:11:49.986Z,7.38
2022-11-18T15:14:52.622Z,9.70
2022-11-18T15:17:55.361Z,9.38
2022-11-18T15:20:58.033Z,8.63
2022-11-18T15:24:00.675Z,9.25
2022-11-18T15:27:05.514Z,7.28
2022-11-18T15:30:08.729Z,7.05
2022-11-18T15:33:11.431Z,8.57
2022-11-18T15:36:16.565Z,9.03
2022-11-18T15:39:19.291Z,8.57
2022-11-18T15:42:48.780Z,7.97
2022-11-18T15:45:58.549Z,9.70
2022-11-18T15:49:01.514Z,7.90
2022-11-18T15:52:04.291Z,7.97
2022-11-18T15:55:08.275Z,8.10
2022-11-18T15:58:11.085Z,7.50
2022-11-18T16:01:13.826Z,7.88
2022-11-18T16:04:19.281Z,8.75
2022-11-18T16:07:22.619Z,7.73
2022-11-18T16:10:44.234Z,7.68
2022-11-18T16:13:47.064Z,7.82
2022-11-18T16:16:52.095Z,9.27
2022-11-18T16:19:54.785Z,7.45
2022-11-18T16:22:57.619Z,7.93
2022-11-18T16:26:00.305Z,7.45
2022-11-18T16:29:04.534Z,10.07
2022-11-18T16:32:14.425Z,7.88
2022-11-18T16:35:17.175Z,8.00
2022-11-18T16:38:19.834Z,7.73
2022-11-18T16:41:32.280Z,7.95
2022-11-18T16:44:35.455Z,7.50
2022-11-18T16:47:38.621Z,8.38
2022-11-18T16:50:41.209Z,8.73
2022-11-18T16:53:44.030Z,10.03
2022-11-18T16:56:48.272Z,9.13
2022-11-18T16:59:51.441Z,8.38
2022-11-18T17:02:54.516Z,8.43
2022-11-18T17:06:00.647Z,8.70
2022-11-18T17:09:04.407Z,8.33
2022-11-18T17:12:07.743Z,9.35
2022-11-18T17:15:10.534Z,8.13
2022-11-18T17:18:15.878Z,8.30
2022-11-18T17:21:19.004Z,7.38
2022-11-18T17:24:23.429Z,7.37
2022-11-18T17:27:26.966Z,6.90
2022-11-18T17:30:30.044Z,7.88
2022-11-18T17:33:33.007Z,7.85
2022-11-18T17:36:35.682Z,8.00
2022-11-18T17:39:38.685Z,7.63
2022-11-18T17:42:41.505Z,9.50
2022-11-18T17:45:50.456Z,7.82
2022-11-18T17:48:57.850Z,8.07
2022-11-18T17:52:00.650Z,6.95
2022-11-18T17:55:03.629Z,6.77
2022-11-18T17:58:07.017Z,6.78
2022-11-18T18:01:11.759Z,8.85
2022-11-18T18:04:20.233Z,9.82
2022-11-18T18:07:23.230Z,7.88
2022-11-18T18:10:26.714Z,7.10
2022-11-18T18:13:47.696Z,7.68
2022-11-18T18:16:56.111Z,7.72
2022-11-18T18:20:00.664Z,9.00
2022-11-18T18:23:03.355Z,7.30
2022-11-18T18:26:07.491Z,7.40
2022-11-18T18:29:11.969Z,7.65
2022-11-18T18:32:15.020Z,7.70
2022-11-18T18:35:18.091Z,7.50
2022-11-18T18:38:20.933Z,8.38
2022-11-18T18:41:23.858Z,7.37
2022-11-18T18:44:46.760Z,7.45
2022-11-18T18:47:49.923Z,7.40
2022-11-18T18:50:54.259Z,6.80
2022-11-18T18:53:59.943Z,7.88
2022-11-18T18:57:03.068Z,9.27
2022-11-18T19:00:06.823Z,7.65
2022-11-18T19:03:09.751Z,7.50
2022-11-18T19:06:48.698Z,7.97
2022-11-18T19:09:41.522Z,6.28
2022-11-18T19:12:44.732Z,7.27
2022-11-18T19:15:47.856Z,7.88
2022-11-18T19:18:50.869Z,6.75
2022-11-18T19:21:53.763Z,6.80
2022-11-18T19:24:56.692Z,7.57
2022-11-18T19:28:00.517Z,6.50
2022-11-18T19:31:03.723Z,6.65
2022-11-18T19:34:06.904Z,7.13
2022-11-18T19:37:10.077Z,7.30
2022-11-18T19:40:15.384Z,7.72
2022-11-18T19:43:18.347Z,8.27
2022-11-18T19:46:21.691Z,7.15
2022-11-18T19:49:25.152Z,6.60
2022-11-18T19:52:29.241Z,7.07
2022-11-18T19:55:32.236Z,8.73
2022-11-18T19:58:36.812Z,8.47
2022-11-18T20:01:40.412Z,6.90
2022-11-18T20:05:03.257Z,6.55
2022-11-18T20:08:06.398Z,7.13
2022-11-18T20:11:11.401Z,6.75
2022-11-18T20:14:14.690Z,7.23
2022-11-18T20:17:17.759Z,8.57
2022-11-18T20:20:20.908Z,7.00
2022-11-18T20:23:24.011Z,7.82
2022-11-18T20:26:29.925Z,7.13
2022-11-18T20:29:32.641Z,6.63
2022-11-18T20:32:37.008Z,6.80
2022-11-18T20:35:41.404Z,6.97
2022-11-18T20:38:44.446Z,5.75
2022-11-18T20:42:10.337Z,7.60
2022-11-18T20:45:13.441Z,8.73
2022-11-18T20:48:16.641Z,7.15
2022-11-18T20:51:24.333Z,6.95
2022-11-18T20:54:27.474Z,6.85
2022-11-18T20:57:30.146Z,7.25
2022-11-18T21:00:33.423Z,6.93
2022-11-18T21:03:37.154Z,6.32
2022-11-18T21:06:39.960Z,7.50
2022-11-18T21:09:43.600Z,7.53
2022-11-18T21:13:05.406Z,7.65
2022-11-18T21:16:08.363Z,7.27
2022-11-18T21:19:11.770Z,7.20
2022-11-18T21:22:14.810Z,7.57
2022-11-18T21:25:17.851Z,8.07
2022-11-18T21:28:20.473Z,7.18
2022-11-18T21:31:24.657Z,6.77
2022-11-18T21:34:27.817Z,7.13
2022-11-18T21:37:33.048Z,8.55
2022-11-18T21:40:35.705Z,7.25
2022-11-18T21:47:02.086Z,7.53
2022-11-18T21:50:05.354Z,8.25
2022-11-18T21:53:07.975Z,7.78
2022-11-18T21:56:15.915Z,6.65
2022-11-18T21:59:19.232Z,7.15
2022-11-18T22:02:22.240Z,7.03
2022-11-18T22:05:24.786Z,7.25
2022-11-18T22:08:27.753Z,6.78
2022-11-18T22:11:30.413Z,7.03
2022-11-18T22:14:33.177Z,7.15
2022-11-18T22:17:35.747Z,6.97
2022-11-18T22:20:38.622Z,7.72
2022-11-18T22:23:41.687Z,7.47
2022-11-18T22:26:44.326Z,6.55
2022-11-18T22:29:46.927Z,6.57
2022-11-18T22:32:49.568Z,7.83
2022-11-18T22:35:52.211Z,6.82
2022-11-18T22:38:55.891Z,6.93
2022-11-18T22:42:16.780Z,7.45
2022-11-18T22:45:19.446Z,7.50
2022-11-18T22:48:21.989Z,7.30
2022-11-18T22:51:25.009Z,7.07
2022-11-18T22:54:43.219Z,6.75
2022-11-18T22:57:45.883Z,6.93
2022-11-18T23:00:48.555Z,6.35
2022-11-18T23:03:51.853Z,6.97
2022-11-18T23:06:54.529Z,6.10
2022-11-18T23:09:57.211Z,6.80
2022-11-18T23:13:18.088Z,7.15
2022-11-18T23:16:21.045Z,6.70
2022-11-18T23:19:23.778Z,7.00
2022-11-18T23:22:26.413Z,6.95
2022-11-18T23:25:29.952Z,6.32
2022-11-18T23:28:33.425Z,6.00
2022-11-18T23:31:36.014Z,6.55
2022-11-18T23:34:38.683Z,7.23
2022-11-18T23:37:41.342Z,6.72
2022-11-18T23:40:43.976Z,6.88
2022-11-18T23:43:48.529Z,5.93
2022-11-18T23:46:51.164Z,6.68
2022-11-18T23:49:53.789Z,6.40
2022-11-18T23:52:56.544Z,6.47
2022-11-18T23:56:00.660Z,7.03
2022-11-18T23:59:03.491Z,6.63
